Time;durP1;ratioP1;P1;durP2;ratioP2;P2;SDS_P1;SDS_P2;PMS_P1;PMS_P2;Temp;Humidity;BMP_temperature;BMP_pressure;BME280_temperature;BME280_humidity;BME280_pressure;Samples;Min_cycle;Max_cycle;Signal;HPM_P1;HPM_P2
2023/10/11 00:00:57;;;;;;;0.70;0.60;;;;;;;;;;1043260;28;20036;-70
2023/10/11 00:01:28;;;;;;;0.10;0.10;;;;;;;;;;1041739;28;20032;-70
2023/10/11 00:01:58;;;;;;;1.98;0.65;;;;;;;;;;1041684;28;20029;-69
2023/10/11 00:02:30;;;;;;;0.20;0.20;;;;;;;;;;1041710;28;20056;-69
2023/10/11 00:03:06;;;;;;;0.65;0.65;;;;;;;;;;1043645;28;20028;-69
2023/10/11 00:03:42;;;;;;;1.10;1.02;;;;;;;;;;1041523;28;20072;-70
2023/10/11 00:04:23;;;;;;;1.13;1.13;;;;;;;;;;1041351;28;20025;-69
2023/10/11 00:04:54;;;;;;;2.55;1.75;;;;;;;;;;1040589;28;20053;-69
2023/10/11 00:05:24;;;;;;;0.63;0.43;;;;;;;;;;1040903;28;20025;-69
2023/10/11 00:05:55;;;;;;;0.10;0.10;;;;;;;;;;1037314;28;20021;-69
2023/10/11 00:06:26;;;;;;;3.20;1.17;;;;;;;;;;1040508;28;20461;-69
2023/10/11 00:06:56;;;;;;;0.22;0.20;;;;;;;;;;1044829;28;20025;-69
2023/10/11 00:07:32;;;;;;;0.50;0.50;;;;;;;;;;1042287;28;20025;-69
2023/10/11 00:08:03;;;;;;;0.30;0.30;;;;;;;;;;1037351;28;20056;-69
2023/10/11 00:08:40;;;;;;;0.30;0.30;;;;;;;;;;1037378;28;20507;-69
2023/10/11 00:09:16;;;;;;;0.38;0.38;;;;;;;;;;1039421;28;20022;-69
2023/10/11 00:09:51;;;;;;;0.75;0.75;;;;;;;;;;1038064;28;20501;-69
2023/10/11 00:10:22;;;;;;;11.48;1.88;;;;;;;;;;1037132;28;20021;-69
2023/10/11 00:10:54;;;;;;;3.20;0.95;;;;;;;;;;1040176;28;20520;-69
2023/10/11 00:11:27;;;;;;;0.30;0.30;;;;;;;;;;1043614;28;20062;-69
2023/10/11 00:11:58;;;;;;;0.63;0.63;;;;;;;;;;1041087;28;20116;-69
2023/10/11 00:12:29;;;;;;;1.33;1.23;;;;;;;;;;1039010;28;20076;-69
2023/10/11 00:12:59;;;;;;;0.50;0.40;;;;;;;;;;1039568;28;20057;-69
2023/10/11 00:13:33;;;;;;;6.63;2.53;;;;;;;;;;1037214;28;20025;-69
2023/10/11 00:14:04;;;;;;;0.15;0.15;;;;;;;;;;1035472;28;20029;-69
2023/10/11 00:14:39;;;;;;;1.40;1.38;;;;;;;;;;1039328;28;20471;-69
2023/10/11 00:15:10;;;;;;;1.75;1.65;;;;;;;;;;1041185;28;20022;-69
2023/10/11 00:15:49;;;;;;;0.52;0.52;;;;;;;;;;1041282;28;20144;-69
2023/10/11 00:16:21;;;;;;;1.38;1.27;;;;;;;;;;1037861;28;20033;-69
2023/10/11 00:16:53;;;;;;;1.00;1.00;;;;;;;;;;1038440;28;20572;-69
2023/10/11 00:17:23;;;;;;;0.63;0.63;;;;;;;;;;1037742;28;20401;-69
2023/10/11 00:17:54;;;;;;;0.60;0.57;;;;;;;;;;1038905;28;20053;-69
2023/10/11 00:18:27;;;;;;;0.63;0.63;;;;;;;;;;1042360;28;20051;-69
2023/10/11 00:18:58;;;;;;;0.10;0.10;;;;;;;;;;1042440;28;20028;-69
2023/10/11 00:19:29;;;;;;;0.65;0.65;;;;;;;;;;1043651;28;20063;-69
2023/10/11 00:20:03;;;;;;;1.38;1.27;;;;;;;;;;1046133;28;20017;-69
2023/10/11 00:21:11;;;;;;;0.43;0.43;;;;;;;;;;1040862;28;20509;-70
2023/10/11 00:21:42;;;;;;;0.57;0.43;;;;;;;;;;1041664;28;20044;-70
2023/10/11 00:22:13;;;;;;;0.22;0.22;;;;;;;;;;1041792;28;20111;-69
2023/10/11 00:22:45;;;;;;;1.85;1.65;;;;;;;;;;1042245;28;20112;-70
2023/10/11 00:23:17;;;;;;;0.50;0.50;;;;;;;;;;1041035;28;20021;-70
2023/10/11 00:23:51;;;;;;;2.40;0.85;;;;;;;;;;1042999;28;20425;-70
2023/10/11 00:24:23;;;;;;;0.25;0.25;;;;;;;;;;1037724;28;20436;-70
2023/10/11 00:24:55;;;;;;;0.85;0.75;;;;;;;;;;1038371;28;20021;-70
2023/10/11 00:25:29;;;;;;;3.03;1.27;;;;;;;;;;1037243;28;20022;-69
2023/10/11 00:26:00;;;;;;;2.05;1.85;;;;;;;;;;1038413;28;20104;-69
2023/10/11 00:26:30;;;;;;;0.40;0.40;;;;;;;;;;1040100;28;20064;-69
2023/10/11 00:27:02;;;;;;;0.32;0.32;;;;;;;;;;1040579;28;20024;-69
2023/10/11 00:27:33;;;;;;;0.90;0.55;;;;;;;;;;1041434;28;20114;-69
2023/10/11 00:28:05;;;;;;;0.20;0.20;;;;;;;;;;1043470;28;20428;-69
2023/10/11 00:28:37;;;;;;;1.08;0.45;;;;;;;;;;1042031;28;20025;-69
2023/10/11 00:29:09;;;;;;;0.20;0.20;;;;;;;;;;1037843;28;20139;-70
2023/10/11 00:29:40;;;;;;;0.45;0.45;;;;;;;;;;1036570;28;20418;-70
2023/10/11 00:30:11;;;;;;;0.45;0.45;;;;;;;;;;1037924;28;20018;-70
2023/10/11 00:30:52;;;;;;;0.35;0.35;;;;;;;;;;1037724;28;20140;-70
2023/10/11 00:31:22;;;;;;;0.60;0.60;;;;;;;;;;1040732;28;20060;-71
2023/10/11 00:31:58;;;;;;;2.80;1.75;;;;;;;;;;1042652;28;20023;-70
2023/10/11 00:32:29;;;;;;;0.70;0.70;;;;;;;;;;1042084;28;20048;-70
2023/10/11 00:33:00;;;;;;;1.27;0.70;;;;;;;;;;1039033;28;20056;-70
2023/10/11 00:33:31;;;;;;;0.28;0.28;;;;;;;;;;1039380;28;20025;-70
2023/10/11 00:34:03;;;;;;;0.52;0.52;;;;;;;;;;1034510;28;20014;-69
2023/10/11 00:34:36;;;;;;;0.10;0.10;;;;;;;;;;1035593;28;20819;-70
2023/10/11 00:35:17;;;;;;;1.08;1.05;;;;;;;;;;1037554;28;20028;-70
2023/10/11 00:35:49;;;;;;;0.10;0.10;;;;;;;;;;1039191;28;20021;-70
2023/10/11 00:36:29;;;;;;;0.63;0.63;;;;;;;;;;1041505;28;20021;-70
2023/10/11 00:37:09;;;;;;;0.47;0.47;;;;;;;;;;1041372;28;20508;-70
2023/10/11 00:37:42;;;;;;;0.25;0.25;;;;;;;;;;1041882;28;20465;-70
2023/10/11 00:38:14;;;;;;;1.85;0.80;;;;;;;;;;1041261;28;20030;-70
2023/10/11 00:38:48;;;;;;;0.88;0.82;;;;;;;;;;1040440;28;20512;-70
2023/10/11 00:39:22;;;;;;;0.10;0.10;;;;;;;;;;1040388;28;20025;-70
2023/10/11 00:39:54;;;;;;;0.40;0.40;;;;;;;;;;1041419;28;20094;-69
2023/10/11 00:40:27;;;;;;;0.20;0.20;;;;;;;;;;1042132;28;20477;-70
2023/10/11 00:41:07;;;;;;;1.83;1.73;;;;;;;;;;1040388;28;20458;-70
2023/10/11 00:41:39;;;;;;;0.50;0.35;;;;;;;;;;1037785;28;20028;-70
2023/10/11 00:42:10;;;;;;;3.35;0.75;;;;;;;;;;1037245;28;20030;-70
2023/10/11 00:42:42;;;;;;;0.68;0.68;;;;;;;;;;1037198;28;20490;-70
2023/10/11 00:43:16;;;;;;;1.52;1.42;;;;;;;;;;1035301;28;20068;-70
2023/10/11 00:43:51;;;;;;;0.30;0.30;;;;;;;;;;1037630;28;20462;-70
2023/10/11 00:44:23;;;;;;;1.08;1.02;;;;;;;;;;1039106;28;20026;-70
2023/10/11 00:44:54;;;;;;;0.47;0.47;;;;;;;;;;1036004;28;20026;-70
2023/10/11 00:45:48;;;;;;;0.93;0.93;;;;;;;;;;1037143;28;20116;-70
2023/10/11 00:46:22;;;;;;;2.13;1.98;;;;;;;;;;1041296;28;20041;-70
2023/10/11 00:47:01;;;;;;;0.75;0.52;;;;;;;;;;1041655;28;20029;-70
2023/10/11 00:47:32;;;;;;;0.20;0.20;;;;;;;;;;1041339;28;20083;-70
2023/10/11 00:48:07;;;;;;;0.43;0.35;;;;;;;;;;1043066;28;20060;-70
2023/10/11 00:48:51;;;;;;;2.05;0.70;;;;;;;;;;1043518;28;20477;-70
2023/10/11 00:49:22;;;;;;;2.10;0.73;;;;;;;;;;1044451;28;20025;-70
2023/10/11 00:49:52;;;;;;;0.20;0.20;;;;;;;;;;1039481;28;20028;-70
2023/10/11 00:50:23;;;;;;;0.20;0.20;;;;;;;;;;1040141;28;20051;-69
2023/10/11 00:50:56;;;;;;;0.47;0.35;;;;;;;;;;1039368;28;20021;-70
2023/10/11 00:51:31;;;;;;;0.73;0.63;;;;;;;;;;1040644;28;20037;-70
2023/10/11 00:52:04;;;;;;;0.65;0.65;;;;;;;;;;1039862;28;20415;-70
2023/10/11 00:52:35;;;;;;;1.05;1.05;;;;;;;;;;1040109;28;20116;-70
2023/10/11 00:53:09;;;;;;;0.65;0.45;;;;;;;;;;1042209;28;20025;-70
2023/10/11 00:53:40;;;;;;;8.05;0.55;;;;;;;;;;1042209;28;20040;-70
2023/10/11 00:54:15;;;;;;;0.95;0.95;;;;;;;;;;1041047;28;20448;-70
2023/10/11 00:54:52;;;;;;;1.02;0.40;;;;;;;;;;1041383;28;20064;-70
2023/10/11 00:55:25;;;;;;;1.30;0.63;;;;;;;;;;1041480;28;20026;-69
2023/10/11 00:55:56;;;;;;;0.32;0.20;;;;;;;;;;1042486;28;20036;-69
2023/10/11 00:56:32;;;;;;;0.40;0.40;;;;;;;;;;1041816;28;20048;-69
2023/10/11 00:57:03;;;;;;;10.30;1.70;;;;;;;;;;1041229;28;20022;-70
2023/10/11 00:57:33;;;;;;;0.40;0.40;;;;;;;;;;1040906;28;20083;-70
2023/10/11 00:58:04;;;;;;;5.65;1.23;;;;;;;;;;1041285;28;20097;-70
2023/10/11 00:58:38;;;;;;;0.13;0.13;;;;;;;;;;1035508;28;20110;-70
2023/10/11 00:59:10;;;;;;;0.55;0.35;;;;;;;;;;1039623;28;20064;-70
2023/10/11 00:59:41;;;;;;;0.00;0.00;;;;;;;;;;1034763;28;20025;-69
2023/10/11 01:00:16;;;;;;;0.30;0.30;;;;;;;;;;1034791;28;20026;-70
2023/10/11 01:00:48;;;;;;;1.00;1.00;;;;;;;;;;1035686;28;20085;-70
2023/10/11 01:01:22;;;;;;;0.10;0.10;;;;;;;;;;1038274;28;20026;-69
2023/10/11 01:01:55;;;;;;;0.63;0.40;;;;;;;;;;1040172;28;20068;-69
2023/10/11 01:02:33;;;;;;;0.43;0.38;;;;;;;;;;1040004;28;20018;-70
2023/10/11 01:03:05;;;;;;;0.30;0.30;;;;;;;;;;1039444;28;20029;-70
2023/10/11 01:03:36;;;;;;;0.43;0.43;;;;;;;;;;1042591;28;20024;-70
2023/10/11 01:04:08;;;;;;;1.38;1.30;;;;;;;;;;1039806;28;20135;-70
2023/10/11 01:04:41;;;;;;;2.72;1.05;;;;;;;;;;1040996;28;20021;-70
2023/10/11 01:05:12;;;;;;;0.10;0.10;;;;;;;;;;1040896;28;20029;-70
2023/10/11 01:05:48;;;;;;;1.25;1.15;;;;;;;;;;1040591;28;20112;-70
2023/10/11 01:06:19;;;;;;;1.45;1.00;;;;;;;;;;1043585;28;20040;-70
2023/10/11 01:06:50;;;;;;;0.35;0.35;;;;;;;;;;1042500;28;20540;-70
2023/10/11 01:07:21;;;;;;;0.47;0.47;;;;;;;;;;1042135;28;20603;-71
2023/10/11 01:07:54;;;;;;;0.47;0.47;;;;;;;;;;1040853;28;20494;-71
2023/10/11 01:08:24;;;;;;;0.65;0.65;;;;;;;;;;1044016;28;20036;-71
2023/10/11 01:08:55;;;;;;;0.22;0.22;;;;;;;;;;1044379;28;20025;-70
2023/10/11 01:09:29;;;;;;;1.02;1.02;;;;;;;;;;1043037;28;20009;-72
2023/10/11 01:09:59;;;;;;;1.65;0.52;;;;;;;;;;1038674;28;20022;-71
2023/10/11 01:10:30;;;;;;;1.27;1.15;;;;;;;;;;1037654;28;20025;-71
2023/10/11 01:11:00;;;;;;;0.20;0.20;;;;;;;;;;1037279;28;20026;-71
2023/10/11 01:11:31;;;;;;;2.33;1.35;;;;;;;;;;1039941;28;20030;-71
2023/10/11 01:12:04;;;;;;;4.18;1.55;;;;;;;;;;1043254;28;20032;-71
2023/10/11 01:12:35;;;;;;;0.17;0.17;;;;;;;;;;1044144;28;20029;-71
2023/10/11 01:13:05;;;;;;;0.40;0.40;;;;;;;;;;1042880;28;20021;-71
2023/10/11 01:13:42;;;;;;;0.22;0.22;;;;;;;;;;1041629;28;20029;-71
2023/10/11 01:14:13;;;;;;;0.10;0.10;;;;;;;;;;1042525;28;20017;-71
2023/10/11 01:14:58;;;;;;;1.95;1.30;;;;;;;;;;1040061;28;20032;-71
2023/10/11 01:15:39;;;;;;;0.55;0.55;;;;;;;;;;1036667;28;20057;-71
2023/10/11 01:16:10;;;;;;;0.77;0.73;;;;;;;;;;1038023;28;20042;-72
2023/10/11 01:16:47;;;;;;;2.05;1.67;;;;;;;;;;1036780;28;20109;-71
2023/10/11 01:17:17;;;;;;;1.17;1.13;;;;;;;;;;1040500;28;20485;-71
2023/10/11 01:17:48;;;;;;;0.80;0.80;;;;;;;;;;1042569;28;20025;-71
2023/10/11 01:18:20;;;;;;;4.97;3.13;;;;;;;;;;1044001;28;20021;-71
2023/10/11 01:18:51;;;;;;;0.47;0.43;;;;;;;;;;1042304;28;20017;-71
2023/10/11 01:19:23;;;;;;;1.48;1.38;;;;;;;;;;1044879;28;20020;-72
2023/10/11 01:19:54;;;;;;;1.00;0.55;;;;;;;;;;1044048;28;20461;-72
2023/10/11 01:20:26;;;;;;;0.40;0.40;;;;;;;;;;1043898;28;20059;-71
2023/10/11 01:20:56;;;;;;;0.85;0.65;;;;;;;;;;1043549;28;20036;-71
2023/10/11 01:21:32;;;;;;;4.63;2.30;;;;;;;;;;1039993;28;20052;-71
2023/10/11 01:22:03;;;;;;;1.13;0.85;;;;;;;;;;1037927;28;20047;-71
2023/10/11 01:22:34;;;;;;;0.88;0.88;;;;;;;;;;1039840;28;20032;-72
2023/10/11 01:23:05;;;;;;;0.10;0.10;;;;;;;;;;1039160;28;20022;-70
2023/10/11 01:23:36;;;;;;;0.20;0.20;;;;;;;;;;1037218;28;20121;-69
2023/10/11 01:24:09;;;;;;;0.45;0.40;;;;;;;;;;1036429;28;20030;-71
2023/10/11 01:24:41;;;;;;;0.45;0.43;;;;;;;;;;1033654;28;20021;-73
2023/10/11 01:25:18;;;;;;;1.50;1.27;;;;;;;;;;1033929;28;20121;-71
2023/10/11 01:25:49;;;;;;;0.68;0.68;;;;;;;;;;1031429;28;20030;-71
2023/10/11 01:26:19;;;;;;;0.15;0.15;;;;;;;;;;1034416;28;20026;-70
2023/10/11 01:26:58;;;;;;;0.70;0.70;;;;;;;;;;1034566;28;20084;-71
2023/10/11 01:27:30;;;;;;;0.60;0.57;;;;;;;;;;1032762;28;20509;-70
2023/10/11 01:28:02;;;;;;;0.20;0.20;;;;;;;;;;1037845;28;20029;-71
2023/10/11 01:28:34;;;;;;;1.05;0.93;;;;;;;;;;1040290;28;20021;-71
2023/10/11 01:29:05;;;;;;;2.17;0.60;;;;;;;;;;1036837;28;20475;-70
2023/10/11 01:29:37;;;;;;;0.43;0.43;;;;;;;;;;1038510;28;20033;-70
2023/10/11 01:30:09;;;;;;;0.10;0.10;;;;;;;;;;1036254;28;20022;-70
2023/10/11 01:30:40;;;;;;;2.15;2.05;;;;;;;;;;1038849;28;20108;-70
2023/10/11 01:31:11;;;;;;;1.00;0.57;;;;;;;;;;1039646;28;20483;-70
2023/10/11 01:31:46;;;;;;;0.47;0.47;;;;;;;;;;1039945;28;20053;-71
2023/10/11 01:32:17;;;;;;;3.40;1.70;;;;;;;;;;1042505;28;20033;-70
2023/10/11 01:32:55;;;;;;;1.75;1.45;;;;;;;;;;1038543;28;20519;-70
2023/10/11 01:33:25;;;;;;;0.17;0.17;;;;;;;;;;1040700;28;20072;-70
2023/10/11 01:34:01;;;;;;;0.73;0.70;;;;;;;;;;1040218;28;20641;-71
2023/10/11 01:34:32;;;;;;;0.10;0.10;;;;;;;;;;1040323;28;20035;-71
2023/10/11 01:35:04;;;;;;;1.02;1.00;;;;;;;;;;1035657;28;20037;-70
2023/10/11 01:35:36;;;;;;;0.80;0.57;;;;;;;;;;1035126;28;20509;-70
2023/10/11 01:36:17;;;;;;;0.93;0.75;;;;;;;;;;1035351;28;20060;-70
2023/10/11 01:36:51;;;;;;;2.03;1.88;;;;;;;;;;1042117;28;20096;-71
2023/10/11 01:37:22;;;;;;;1.02;1.02;;;;;;;;;;1040872;28;20029;-70
2023/10/11 01:37:55;;;;;;;2.03;1.92;;;;;;;;;;1040767;28;20446;-71
2023/10/11 01:38:26;;;;;;;0.43;0.32;;;;;;;;;;1043303;28;20031;-71
2023/10/11 01:39:00;;;;;;;0.10;0.10;;;;;;;;;;1037086;28;20029;-71
2023/10/11 01:39:32;;;;;;;0.40;0.40;;;;;;;;;;1032474;28;20037;-70
2023/10/11 01:40:09;;;;;;;1.08;1.00;;;;;;;;;;1034932;28;20060;-70
2023/10/11 01:40:41;;;;;;;2.67;0.95;;;;;;;;;;1036336;28;20053;-71
2023/10/11 01:41:15;;;;;;;0.20;0.20;;;;;;;;;;1034142;28;20041;-70
2023/10/11 01:41:46;;;;;;;1.85;1.20;;;;;;;;;;1035718;28;20076;-70
2023/10/11 01:42:18;;;;;;;0.20;0.20;;;;;;;;;;1034906;28;20036;-71
2023/10/11 01:42:56;;;;;;;1.02;0.75;;;;;;;;;;1035265;28;20527;-71
2023/10/11 01:43:28;;;;;;;1.45;1.00;;;;;;;;;;1036210;28;20025;-71
2023/10/11 01:43:58;;;;;;;0.10;0.10;;;;;;;;;;1035972;28;20186;-70
2023/10/11 01:44:34;;;;;;;0.73;0.73;;;;;;;;;;1037360;28;20478;-71
2023/10/11 01:45:08;;;;;;;0.13;0.13;;;;;;;;;;1038023;28;20511;-70
2023/10/11 01:45:39;;;;;;;0.60;0.60;;;;;;;;;;1040109;28;20117;-70
2023/10/11 01:46:10;;;;;;;1.75;1.50;;;;;;;;;;1040210;28;20116;-71
2023/10/11 01:46:42;;;;;;;6.53;0.73;;;;;;;;;;1036993;28;20029;-71
2023/10/11 01:47:16;;;;;;;0.10;0.10;;;;;;;;;;1036569;28;20523;-71
2023/10/11 01:47:47;;;;;;;3.08;1.67;;;;;;;;;;1038565;28;20021;-71
2023/10/11 01:48:22;;;;;;;0.10;0.10;;;;;;;;;;1037415;28;20447;-71
2023/10/11 01:48:53;;;;;;;11.15;2.45;;;;;;;;;;1035516;28;20087;-71
2023/10/11 01:49:26;;;;;;;0.90;0.90;;;;;;;;;;1037514;28;20112;-70
2023/10/11 01:49:58;;;;;;;1.00;0.95;;;;;;;;;;1037302;28;20030;-72
2023/10/11 01:50:37;;;;;;;0.88;0.85;;;;;;;;;;1039189;28;20037;-71
2023/10/11 01:51:09;;;;;;;0.52;0.52;;;;;;;;;;1041957;28;20025;-70
2023/10/11 01:51:40;;;;;;;0.75;0.75;;;;;;;;;;1039443;28;20037;-70
2023/10/11 01:52:13;;;;;;;0.52;0.40;;;;;;;;;;1041126;28;20419;-70
2023/10/11 01:52:47;;;;;;;0.65;0.57;;;;;;;;;;1041881;28;20566;-70
2023/10/11 01:53:18;;;;;;;4.18;2.22;;;;;;;;;;1035543;28;20021;-70
2023/10/11 01:53:50;;;;;;;2.92;1.50;;;;;;;;;;1033692;28;20113;-70
2023/10/11 01:54:22;;;;;;;0.73;0.73;;;;;;;;;;1039168;28;20030;-70
2023/10/11 01:54:56;;;;;;;0.20;0.20;;;;;;;;;;1038085;28;20036;-70
2023/10/11 01:55:26;;;;;;;0.40;0.40;;;;;;;;;;1037420;28;20029;-71
2023/10/11 01:55:57;;;;;;;14.95;0.98;;;;;;;;;;1041019;28;20625;-70
2023/10/11 01:56:30;;;;;;;0.50;0.50;;;;;;;;;;1041980;28;20064;-70
2023/10/11 01:57:01;;;;;;;0.75;0.57;;;;;;;;;;1042947;28;20029;-70
2023/10/11 01:57:34;;;;;;;0.20;0.20;;;;;;;;;;1040537;28;20025;-70
2023/10/11 01:58:06;;;;;;;0.30;0.30;;;;;;;;;;1041250;28;20036;-70
2023/10/11 01:58:37;;;;;;;1.98;0.85;;;;;;;;;;1035665;28;20063;-70
2023/10/11 01:59:11;;;;;;;0.40;0.40;;;;;;;;;;1038857;28;20153;-71
2023/10/11 01:59:42;;;;;;;0.45;0.32;;;;;;;;;;1037164;28;20034;-70
2023/10/11 02:00:16;;;;;;;1.98;1.58;;;;;;;;;;1038017;28;20053;-70
2023/10/11 02:00:49;;;;;;;2.10;1.90;;;;;;;;;;1040768;28;20172;-71
2023/10/11 02:01:25;;;;;;;0.55;0.45;;;;;;;;;;1038729;28;20021;-70
2023/10/11 02:02:02;;;;;;;0.15;0.15;;;;;;;;;;1040505;28;20295;-71
2023/10/11 02:02:35;;;;;;;0.10;0.10;;;;;;;;;;1036920;28;20080;-71
2023/10/11 02:03:12;;;;;;;0.73;0.73;;;;;;;;;;1038964;28;20121;-70
2023/10/11 02:03:43;;;;;;;0.38;0.38;;;;;;;;;;1037667;28;20029;-71
2023/10/11 02:04:17;;;;;;;0.20;0.20;;;;;;;;;;1040306;28;20041;-70
2023/10/11 02:04:47;;;;;;;0.20;0.20;;;;;;;;;;1038756;28;20465;-70
2023/10/11 02:05:21;;;;;;;2.92;0.90;;;;;;;;;;1037954;28;20132;-71
2023/10/11 02:05:51;;;;;;;0.17;0.17;;;;;;;;;;1036895;28;20017;-70
2023/10/11 02:06:23;;;;;;;9.45;1.20;;;;;;;;;;1036326;28;20034;-70
2023/10/11 02:06:54;;;;;;;12.93;1.67;;;;;;;;;;1042378;28;20029;-72
2023/10/11 02:07:25;;;;;;;0.30;0.30;;;;;;;;;;1040957;28;20033;-70
2023/10/11 02:07:55;;;;;;;1.73;1.17;;;;;;;;;;1037717;28;20041;-70
2023/10/11 02:08:27;;;;;;;0.80;0.73;;;;;;;;;;1036039;28;20044;-70
2023/10/11 02:08:58;;;;;;;0.75;0.75;;;;;;;;;;1035604;28;20030;-70
2023/10/11 02:09:29;;;;;;;0.50;0.50;;;;;;;;;;1033133;28;20029;-69
2023/10/11 02:09:59;;;;;;;5.82;0.30;;;;;;;;;;1035172;28;20080;-70
2023/10/11 02:10:36;;;;;;;0.30;0.30;;;;;;;;;;1038103;28;20528;-70
2023/10/11 02:11:06;;;;;;;0.38;0.30;;;;;;;;;;1040429;28;20055;-70
2023/10/11 02:11:41;;;;;;;3.88;3.50;;;;;;;;;;1036094;28;20627;-70
2023/10/11 02:12:12;;;;;;;0.38;0.38;;;;;;;;;;1033524;28;20670;-71
2023/10/11 02:12:46;;;;;;;2.28;0.95;;;;;;;;;;1035675;28;20179;-72
2023/10/11 02:13:17;;;;;;;0.35;0.35;;;;;;;;;;1034396;28;20540;-71
2023/10/11 02:13:49;;;;;;;0.28;0.28;;;;;;;;;;1035624;28;20024;-71
2023/10/11 02:14:20;;;;;;;0.20;0.20;;;;;;;;;;1037593;28;20026;-71
2023/10/11 02:14:51;;;;;;;0.50;0.50;;;;;;;;;;1032934;28;20053;-71
2023/10/11 02:15:27;;;;;;;1.25;1.23;;;;;;;;;;1035996;28;20034;-70
2023/10/11 02:16:00;;;;;;;1.08;0.95;;;;;;;;;;1038591;28;20057;-72
2023/10/11 02:16:31;;;;;;;0.40;0.40;;;;;;;;;;1038889;28;20032;-71
2023/10/11 02:17:04;;;;;;;1.98;1.77;;;;;;;;;;1037345;28;20028;-73
2023/10/11 02:17:38;;;;;;;6.22;0.50;;;;;;;;;;1033272;28;20068;-71
2023/10/11 02:18:10;;;;;;;0.10;0.10;;;;;;;;;;1037013;28;20117;-72
2023/10/11 02:18:41;;;;;;;1.42;1.05;;;;;;;;;;1032000;28;20270;-71
2023/10/11 02:19:15;;;;;;;11.07;4.30;;;;;;;;;;1031665;28;20026;-71
2023/10/11 02:19:46;;;;;;;1.27;0.52;;;;;;;;;;1039727;28;20104;-71
2023/10/11 02:20:20;;;;;;;0.32;0.32;;;;;;;;;;1040828;28;20021;-71
2023/10/11 02:20:55;;;;;;;0.45;0.45;;;;;;;;;;1040907;28;20025;-72
2023/10/11 02:21:26;;;;;;;0.82;0.75;;;;;;;;;;1034063;28;20022;-72
2023/10/11 02:21:59;;;;;;;0.80;0.80;;;;;;;;;;1035425;28;20556;-72
2023/10/11 02:22:32;;;;;;;4.00;0.60;;;;;;;;;;1037877;28;20018;-71
2023/10/11 02:23:04;;;;;;;0.30;0.30;;;;;;;;;;1038665;28;20095;-71
2023/10/11 02:23:39;;;;;;;12.20;1.05;;;;;;;;;;1037044;28;20056;-71
2023/10/11 02:24:11;;;;;;;0.30;0.30;;;;;;;;;;1036126;28;20096;-71
2023/10/11 02:24:45;;;;;;;1.63;0.73;;;;;;;;;;1035706;28;20077;-71
2023/10/11 02:25:16;;;;;;;0.80;0.60;;;;;;;;;;1037570;28;20100;-72
2023/10/11 02:25:48;;;;;;;2.90;1.65;;;;;;;;;;1037527;28;20057;-73
2023/10/11 02:26:27;;;;;;;0.22;0.22;;;;;;;;;;1037078;28;20025;-71
2023/10/11 02:26:58;;;;;;;0.45;0.30;;;;;;;;;;1037724;28;20502;-71
2023/10/11 02:27:32;;;;;;;16.15;2.00;;;;;;;;;;1040103;28;20022;-72
2023/10/11 02:28:08;;;;;;;0.40;0.40;;;;;;;;;;1036851;28;20040;-71
2023/10/11 02:28:39;;;;;;;2.00;1.83;;;;;;;;;;1037482;28;20029;-71
2023/10/11 02:29:16;;;;;;;1.15;1.13;;;;;;;;;;1037726;28;20037;-72
2023/10/11 02:29:47;;;;;;;4.57;0.70;;;;;;;;;;1038310;28;20563;-71
2023/10/11 02:30:24;;;;;;;0.63;0.63;;;;;;;;;;1041783;28;20021;-71
2023/10/11 02:30:56;;;;;;;1.13;1.05;;;;;;;;;;1041616;28;20032;-71
2023/10/11 02:31:31;;;;;;;1.02;0.55;;;;;;;;;;1036905;28;20030;-72
2023/10/11 02:32:04;;;;;;;0.10;0.10;;;;;;;;;;1032948;28;20034;-72
2023/10/11 02:32:38;;;;;;;2.92;1.80;;;;;;;;;;1031995;28;20029;-71
2023/10/11 02:33:11;;;;;;;2.17;1.45;;;;;;;;;;1029995;28;20513;-72
2023/10/11 02:33:43;;;;;;;2.75;0.90;;;;;;;;;;1034318;28;20026;-71
2023/10/11 02:34:14;;;;;;;0.77;0.68;;;;;;;;;;1038560;28;20064;-71
2023/10/11 02:34:49;;;;;;;5.22;1.30;;;;;;;;;;1032201;28;20033;-71
2023/10/11 02:35:20;;;;;;;1.35;1.25;;;;;;;;;;1033369;28;20022;-72
2023/10/11 02:35:57;;;;;;;3.40;2.13;;;;;;;;;;1036626;28;20021;-71
2023/10/11 02:36:27;;;;;;;2.03;0.50;;;;;;;;;;1034706;28;20491;-72
2023/10/11 02:37:03;;;;;;;1.30;1.20;;;;;;;;;;1037145;28;20061;-73
2023/10/11 02:37:37;;;;;;;0.80;0.80;;;;;;;;;;1031004;28;20409;-71
2023/10/11 02:38:09;;;;;;;0.40;0.13;;;;;;;;;;1032075;28;20032;-72
2023/10/11 02:38:50;;;;;;;0.30;0.30;;;;;;;;;;1029241;28;20138;-72
2023/10/11 02:39:22;;;;;;;0.55;0.55;;;;;;;;;;1034789;28;20145;-72
2023/10/11 02:39:52;;;;;;;1.33;0.95;;;;;;;;;;1036198;28;20049;-72
2023/10/11 02:40:23;;;;;;;0.22;0.22;;;;;;;;;;1040566;28;20118;-71
2023/10/11 02:40:56;;;;;;;1.75;1.65;;;;;;;;;;1037518;28;20057;-71
2023/10/11 02:41:27;;;;;;;0.20;0.20;;;;;;;;;;1036937;28;20489;-71
2023/10/11 02:41:58;;;;;;;0.30;0.30;;;;;;;;;;1035076;28;20048;-71
2023/10/11 02:42:29;;;;;;;2.08;1.88;;;;;;;;;;1028504;28;20117;-72
2023/10/11 02:43:03;;;;;;;0.80;0.75;;;;;;;;;;1033766;28;20051;-72
2023/10/11 02:43:47;;;;;;;5.00;3.78;;;;;;;;;;1034798;28;20038;-72
2023/10/11 02:44:22;;;;;;;0.10;0.10;;;;;;;;;;1032763;28;20026;-71
2023/10/11 02:44:53;;;;;;;1.40;1.17;;;;;;;;;;1035682;28;20416;-71
2023/10/11 02:45:23;;;;;;;2.55;1.75;;;;;;;;;;1040569;28;20021;-72
2023/10/11 02:45:54;;;;;;;5.13;2.92;;;;;;;;;;1038956;28;20029;-71
2023/10/11 02:46:26;;;;;;;0.63;0.63;;;;;;;;;;1038631;28;20025;-72
2023/10/11 02:46:58;;;;;;;0.73;0.35;;;;;;;;;;1041256;28;20020;-72
2023/10/11 02:47:29;;;;;;;0.95;0.47;;;;;;;;;;1038023;28;20423;-72
2023/10/11 02:48:02;;;;;;;0.20;0.20;;;;;;;;;;1040233;28;20025;-72
2023/10/11 02:48:33;;;;;;;0.52;0.52;;;;;;;;;;1041875;28;20487;-72
2023/10/11 02:49:18;;;;;;;1.70;1.58;;;;;;;;;;1038607;28;20032;-72
2023/10/11 02:49:52;;;;;;;2.10;1.88;;;;;;;;;;1038799;28;20072;-71
2023/10/11 02:50:22;;;;;;;13.13;3.20;;;;;;;;;;1037435;28;20033;-71
2023/10/11 02:50:57;;;;;;;0.40;0.40;;;;;;;;;;1040438;28;20039;-71
2023/10/11 02:51:27;;;;;;;5.25;3.10;;;;;;;;;;1038035;28;20051;-69
2023/10/11 02:52:05;;;;;;;3.33;1.95;;;;;;;;;;1036917;28;20086;-71
2023/10/11 02:52:36;;;;;;;5.47;0.93;;;;;;;;;;1033254;28;20091;-70
2023/10/11 02:53:21;;;;;;;0.77;0.77;;;;;;;;;;1036446;28;20658;-72
2023/10/11 02:53:54;;;;;;;0.65;0.57;;;;;;;;;;1031731;28;20040;-70
2023/10/11 02:54:33;;;;;;;2.50;1.52;;;;;;;;;;1035415;28;20100;-73
2023/10/11 02:55:20;;;;;;;0.10;0.10;;;;;;;;;;1036455;28;20028;-72
2023/10/11 02:55:57;;;;;;;2.30;2.15;;;;;;;;;;1035139;28;20123;-72
2023/10/11 02:56:28;;;;;;;2.72;1.45;;;;;;;;;;1034747;28;20030;-71
2023/10/11 02:56:58;;;;;;;3.03;2.58;;;;;;;;;;1033761;28;20049;-70
2023/10/11 02:57:29;;;;;;;0.90;0.40;;;;;;;;;;1034428;28;20452;-71
2023/10/11 02:58:06;;;;;;;1.98;0.57;;;;;;;;;;1034692;28;20045;-71
2023/10/11 02:58:39;;;;;;;2.22;1.90;;;;;;;;;;1033603;28;20065;-71
2023/10/11 02:59:11;;;;;;;0.30;0.30;;;;;;;;;;1037491;28;20022;-71
2023/10/11 02:59:44;;;;;;;4.65;3.20;;;;;;;;;;1037652;28;20465;-70
2023/10/11 03:00:24;;;;;;;0.65;0.65;;;;;;;;;;1038014;28;20017;-71
2023/10/11 03:01:10;;;;;;;2.22;0.57;;;;;;;;;;1033268;28;20048;-72
2023/10/11 03:01:42;;;;;;;3.20;1.15;;;;;;;;;;1030058;28;20092;-72
2023/10/11 03:02:15;;;;;;;12.05;4.93;;;;;;;;;;1025579;28;20092;-73
2023/10/11 03:02:45;;;;;;;10.45;4.70;;;;;;;;;;1028097;28;20080;-72
2023/10/11 03:03:16;;;;;;;1.98;1.88;;;;;;;;;;1031752;28;20115;-72
2023/10/11 03:03:52;;;;;;;0.47;0.47;;;;;;;;;;1036983;28;20128;-73
2023/10/11 03:04:27;;;;;;;0.47;0.47;;;;;;;;;;1035319;28;20068;-74
2023/10/11 03:05:01;;;;;;;0.38;0.38;;;;;;;;;;1034328;28;20045;-72
2023/10/11 03:05:32;;;;;;;1.13;1.02;;;;;;;;;;1035761;28;20406;-74
2023/10/11 03:06:02;;;;;;;3.63;0.88;;;;;;;;;;1035830;28;20033;-74
2023/10/11 03:06:35;;;;;;;7.93;1.65;;;;;;;;;;1035918;28;20040;-72
2023/10/11 03:07:12;;;;;;;8.93;2.88;;;;;;;;;;1030931;28;20045;-72
2023/10/11 03:07:42;;;;;;;0.30;0.30;;;;;;;;;;1031188;28;20125;-72
2023/10/11 03:08:20;;;;;;;0.98;0.90;;;;;;;;;;1026463;28;20374;-72
2023/10/11 03:08:53;;;;;;;3.75;2.83;;;;;;;;;;1028612;28;20038;-71
2023/10/11 03:09:27;;;;;;;0.40;0.40;;;;;;;;;;1024409;28;20041;-73
2023/10/11 03:09:59;;;;;;;1.95;1.85;;;;;;;;;;1028355;28;20031;-75
2023/10/11 03:10:30;;;;;;;1.40;1.30;;;;;;;;;;1031827;28;20030;-74
2023/10/11 03:11:04;;;;;;;1.08;0.90;;;;;;;;;;1032857;28;20795;-72
2023/10/11 03:11:42;;;;;;;0.93;0.93;;;;;;;;;;1032920;28;20077;-72
2023/10/11 03:12:38;;;;;;;8.40;1.45;;;;;;;;;;1030047;28;20521;-73
2023/10/11 03:13:41;;;;;;;2.47;1.48;;;;;;;;;;1032940;28;20084;-73
2023/10/11 03:14:04;;;;;;;0.68;0.68;;;;;;;;;;1033452;28;20101;-72
2023/10/11 03:14:43;;;;;;;3.45;3.13;;;;;;;;;;1037838;28;20582;-73
2023/10/11 03:15:19;;;;;;;4.05;1.85;;;;;;;;;;1036107;28;20038;-74
2023/10/11 03:15:56;;;;;;;3.83;1.92;;;;;;;;;;1036649;28;20029;-72
2023/10/11 03:16:27;;;;;;;0.98;0.88;;;;;;;;;;1034573;28;20591;-72
2023/10/11 03:17:05;;;;;;;2.28;1.60;;;;;;;;;;1033019;28;20064;-72
2023/10/11 03:17:40;;;;;;;3.47;1.30;;;;;;;;;;1033423;28;20533;-74
2023/10/11 03:18:12;;;;;;;0.43;0.43;;;;;;;;;;1033819;28;20512;-71
2023/10/11 03:18:46;;;;;;;7.25;2.63;;;;;;;;;;1037053;28;20029;-71
2023/10/11 03:19:16;;;;;;;1.05;1.05;;;;;;;;;;1037600;28;20485;-72
2023/10/11 03:19:49;;;;;;;0.45;0.45;;;;;;;;;;1036565;28;20028;-70
2023/10/11 03:21:15;;;;;;;0.20;0.10;;;;;;;;;;1036791;28;20493;-71
2023/10/11 03:21:53;;;;;;;11.60;4.22;;;;;;;;;;1038496;28;20582;-72